Time;durP1;ratioP1;P1;durP2;ratioP2;P2;SDS_P1;SDS_P2;PMS_P1;PMS_P2;Temp;Humidity;BMP_temperature;BMP_pressure;BME280_temperature;BME280_humidity;BME280_pressure;Samples;Min_cycle;Max_cycle;Signal;HPM_P1;HPM_P2
2021/08/26 00:00:56;;;;;;;6.03;5.30;;;18.00;1.00;;;;;;5049248;28;20449;-57
2021/08/26 00:06:08;;;;;;;8.70;5.97;;;17.80;1.00;;;;;;5050734;28;20951;-56
2021/08/26 00:08:33;;;;;;;7.07;6.37;;;17.80;1.00;;;;;;5048553;28;20449;-56
2021/08/26 00:11:00;;;;;;;8.40;7.03;;;17.70;1.00;;;;;;5049296;28;20422;-57
2021/08/26 00:13:26;;;;;;;8.87;7.50;;;17.60;1.00;;;;;;5050428;28;20685;-56
2021/08/26 00:15:53;;;;;;;8.43;7.53;;;17.50;1.00;;;;;;5050037;28;20445;-56
2021/08/26 00:18:19;;;;;;;9.73;8.43;;;17.40;1.00;;;;;;5048456;28;20192;-57
2021/08/26 00:20:50;;;;;;;10.50;9.07;;;17.50;1.00;;;;;;5049418;28;20549;-56
2021/08/26 00:23:15;;;;;;;9.93;9.00;;;17.50;1.00;;;;;;5051098;28;20187;-57
2021/08/26 00:25:41;;;;;;;14.23;11.23;;;17.40;1.00;;;;;;5050861;28;20445;-57
2021/08/26 00:28:07;;;;;;;11.90;10.70;;;17.40;1.00;;;;;;5050235;28;20187;-57
2021/08/26 00:30:32;;;;;;;12.17;10.33;;;17.30;1.00;;;;;;5049512;28;20180;-56
2021/08/26 00:32:58;;;;;;;13.10;11.90;;;17.20;1.00;;;;;;5049981;28;20667;-56
2021/08/26 00:35:24;;;;;;;12.67;11.47;;;17.20;1.00;;;;;;5050036;28;20232;-56
2021/08/26 00:37:49;;;;;;;11.47;10.37;;;17.20;1.00;;;;;;5049558;28;20186;-57
2021/08/26 00:40:15;;;;;;;11.70;10.60;;;17.20;1.00;;;;;;5050042;28;20549;-57
2021/08/26 00:42:41;;;;;;;12.13;10.97;;;17.10;1.00;;;;;;5050069;28;20299;-56
2021/08/26 00:45:07;;;;;;;13.00;11.67;;;17.00;1.00;;;;;;5049708;28;20178;-57
2021/08/26 00:47:34;;;;;;;13.73;11.93;;;17.10;1.00;;;;;;5060161;28;20236;-56
2021/08/26 00:49:59;;;;;;;11.60;10.40;;;17.20;1.00;;;;;;5048682;28;20424;-58
2021/08/26 00:52:25;;;;;;;12.23;11.00;;;17.10;1.00;;;;;;5049074;28;20436;-57
2021/08/26 00:54:54;;;;;;;12.73;11.43;;;17.00;1.00;;;;;;5049583;28;20212;-57
2021/08/26 00:57:21;;;;;;;12.13;10.90;;;16.90;1.00;;;;;;5049098;28;20420;-57
2021/08/26 00:59:47;;;;;;;13.50;11.97;;;16.80;1.00;;;;;;5049709;28;20467;-57
2021/08/26 01:02:39;;;;;;;11.60;10.50;;;16.90;1.00;;;;;;5052671;28;20444;-57
2021/08/26 01:05:15;;;;;;;12.00;10.87;;;16.80;1.00;;;;;;5049544;28;20434;-58
2021/08/26 01:07:47;;;;;;;12.83;11.47;;;16.90;1.00;;;;;;5051719;28;20786;-56
2021/08/26 01:10:15;;;;;;;11.53;10.43;;;16.90;1.00;;;;;;5051356;28;20547;-57
2021/08/26 01:12:44;;;;;;;11.97;10.77;;;16.90;1.00;;;;;;5053674;28;20575;-57
2021/08/26 01:15:10;;;;;;;12.07;10.87;;;16.90;1.00;;;;;;5053656;28;20459;-57
2021/08/26 01:17:36;;;;;;;13.13;11.57;;;17.00;1.00;;;;;;5053823;28;20436;-56
2021/08/26 01:20:04;;;;;;;13.90;12.60;;;16.90;1.00;;;;;;5053274;28;20444;-56
2021/08/26 01:22:34;;;;;;;13.23;11.90;;;16.90;1.00;;;;;;5051984;28;20231;-56
2021/08/26 01:25:07;;;;;;;15.43;12.87;;;16.90;1.00;;;;;;5053531;28;20494;-56
2021/08/26 01:27:40;;;;;;;13.83;12.43;;;16.80;1.00;;;;;;5052697;28;20466;-55
2021/08/26 01:30:08;;;;;;;12.57;11.37;;;16.80;1.00;;;;;;5053031;28;20521;-56
2021/08/26 01:32:34;;;;;;;13.03;11.83;;;16.80;1.00;;;;;;5051527;28;20517;-56
2021/08/26 01:35:06;;;;;;;13.53;12.43;;;16.70;1.00;;;;;;5052427;28;20500;-56
2021/08/26 01:37:31;;;;;;;14.47;12.97;;;16.70;1.00;;;;;;5073778;28;20996;-57
2021/08/26 01:39:57;;;;;;;12.73;11.63;;;16.70;1.00;;;;;;5063590;28;20571;-56
2021/08/26 01:42:26;;;;;;;13.63;12.23;;;16.70;1.00;;;;;;5052836;28;20196;-56
2021/08/26 01:44:55;;;;;;;13.13;11.83;;;16.60;1.00;;;;;;5052897;28;20180;-56
2021/08/26 01:47:22;;;;;;;15.13;12.90;;;16.50;1.00;;;;;;5053038;28;20477;-56
2021/08/26 01:49:50;;;;;;;13.87;12.70;;;16.60;1.00;;;;;;5052374;28;20426;-56
2021/08/26 01:52:17;;;;;;;14.27;12.90;;;16.70;1.00;;;;;;5052711;28;20457;-56
2021/08/26 01:55:04;;;;;;;13.83;11.63;;;16.70;1.00;;;;;;5052621;28;20558;-57
2021/08/26 01:57:31;;;;;;;12.77;11.50;;;16.70;1.00;;;;;;5052900;28;20410;-57
2021/08/26 02:00:03;;;;;;;13.00;11.70;;;16.70;1.00;;;;;;5050438;28;20445;-58
2021/08/26 02:02:29;;;;;;;12.67;11.57;;;16.80;1.00;;;;;;5059643;28;20459;-57
2021/08/26 02:04:54;;;;;;;10.80;10.00;;;16.90;1.00;;;;;;5060821;28;20441;-57
2021/08/26 02:07:20;;;;;;;11.23;10.30;;;16.90;1.00;;;;;;5052573;28;20186;-56
2021/08/26 02:09:45;;;;;;;10.50;9.50;;;16.90;1.00;;;;;;5053055;28;20683;-57
2021/08/26 02:12:11;;;;;;;9.77;8.97;;;17.00;1.00;;;;;;5052358;28;20303;-56
2021/08/26 02:14:36;;;;;;;9.60;8.80;;;17.10;1.00;;;;;;5052373;28;20683;-56
2021/08/26 02:17:02;;;;;;;9.23;8.23;;;17.10;1.00;;;;;;5050270;28;20212;-56
2021/08/26 02:19:28;;;;;;;8.83;8.17;;;17.10;1.00;;;;;;5051776;28;20718;-57
2021/08/26 02:21:54;;;;;;;9.30;8.50;;;17.10;1.00;;;;;;5052127;28;20221;-57
2021/08/26 02:24:19;;;;;;;10.30;9.50;;;17.10;1.00;;;;;;5052124;28;20534;-58
2021/08/26 02:26:45;;;;;;;9.47;8.67;;;17.20;1.00;;;;;;5050840;28;20192;-57
2021/08/26 02:29:10;;;;;;;9.50;8.80;;;17.20;1.00;;;;;;5051468;28;20190;-57
2021/08/26 02:31:36;;;;;;;8.33;7.73;;;17.20;1.00;;;;;;5051556;28;20189;-57
2021/08/26 02:34:02;;;;;;;7.47;6.90;;;17.10;1.00;;;;;;5052445;28;20218;-57
2021/08/26 02:36:27;;;;;;;8.30;7.63;;;17.10;1.00;;;;;;5048758;28;20182;-58
2021/08/26 02:38:53;;;;;;;7.53;7.03;;;17.10;1.00;;;;;;5047779;28;20210;-57
2021/08/26 02:41:19;;;;;;;8.43;7.83;;;17.20;1.00;;;;;;5052207;28;20196;-57
2021/08/26 02:43:45;;;;;;;8.00;7.40;;;17.20;1.00;;;;;;5049847;28;20417;-56
2021/08/26 02:46:10;;;;;;;7.30;6.73;;;17.10;1.00;;;;;;5051739;28;20448;-57
2021/08/26 02:48:36;;;;;;;6.60;6.13;;;17.10;1.00;;;;;;5051554;28;20252;-56
2021/08/26 02:51:02;;;;;;;7.40;6.80;;;17.00;1.00;;;;;;5050510;28;20191;-56
2021/08/26 02:53:28;;;;;;;9.47;8.67;;;16.90;1.00;;;;;;5051860;28;20450;-57
2021/08/26 02:55:53;;;;;;;5.73;5.30;;;16.90;1.00;;;;;;5052172;28;20204;-56
2021/08/26 02:58:19;;;;;;;5.33;4.40;;;16.70;1.00;;;;;;5049862;28;20201;-57
2021/08/26 03:00:45;;;;;;;5.70;3.00;;;16.40;1.00;;;;;;5050794;28;20800;-58
2021/08/26 03:03:10;;;;;;;5.90;3.00;;;16.00;1.00;;;;;;5050914;28;20610;-57
2021/08/26 03:05:36;;;;;;;4.23;3.57;;;15.80;1.00;;;;;;5051490;28;20178;-57
2021/08/26 03:08:02;;;;;;;3.83;2.77;;;15.60;1.00;;;;;;5051848;28;20178;-56
2021/08/26 03:10:28;;;;;;;5.90;2.87;;;15.50;1.00;;;;;;5050543;28;20233;-56
2021/08/26 03:12:54;;;;;;;3.17;2.73;;;15.50;1.00;;;;;;5050915;28;20227;-56
2021/08/26 03:15:20;;;;;;;7.73;2.97;;;15.60;1.00;;;;;;5049510;28;20425;-57
2021/08/26 03:17:45;;;;;;;2.83;2.63;;;15.80;1.00;;;;;;5049227;28;20426;-57
2021/08/26 03:20:12;;;;;;;4.37;2.97;;;15.70;1.00;;;;;;5048505;28;20204;-57
2021/08/26 03:22:37;;;;;;;5.47;2.87;;;15.70;1.00;;;;;;5050870;28;20227;-57
2021/08/26 03:25:04;;;;;;;3.60;2.83;;;15.70;1.00;;;;;;5050198;28;21021;-56
2021/08/26 03:27:30;;;;;;;8.03;2.70;;;15.80;1.00;;;;;;5050134;28;20205;-56
2021/08/26 03:29:56;;;;;;;3.80;2.60;;;15.70;1.00;;;;;;5048843;28;20962;-56
2021/08/26 03:32:21;;;;;;;3.37;2.70;;;15.60;1.00;;;;;;5051066;28;20444;-56
2021/08/26 03:34:47;;;;;;;5.37;3.53;;;16.00;1.00;;;;;;5050890;28;20222;-56
2021/08/26 03:37:13;;;;;;;7.63;2.50;;;15.50;1.00;;;;;;5047617;28;20215;-56
2021/08/26 03:39:38;;;;;;;4.60;2.70;;;15.50;1.00;;;;;;5049409;28;20498;-56
2021/08/26 03:42:04;;;;;;;7.43;3.27;;;15.40;1.00;;;;;;5049597;28;20172;-57
2021/08/26 03:44:30;;;;;;;4.10;2.57;;;15.60;1.00;;;;;;5050325;28;20546;-57
2021/08/26 03:46:55;;;;;;;6.33;3.00;;;15.60;1.00;;;;;;5050573;28;20269;-57
2021/08/26 03:49:21;;;;;;;5.40;3.50;;;15.60;1.00;;;;;;5050962;28;20219;-58
2021/08/26 03:51:46;;;;;;;4.40;2.93;;;15.60;1.00;;;;;;5047238;28;20196;-57
2021/08/26 03:54:12;;;;;;;3.40;3.00;;;15.70;1.00;;;;;;5049801;28;20661;-57
2021/08/26 03:56:38;;;;;;;3.43;2.80;;;15.70;1.00;;;;;;5049348;28;20191;-58
2021/08/26 03:59:03;;;;;;;4.33;2.87;;;15.80;1.00;;;;;;5050045;28;20197;-57
2021/08/26 04:01:29;;;;;;;3.90;2.50;;;15.80;1.00;;;;;;5049015;28;20270;-56
2021/08/26 04:03:54;;;;;;;3.90;2.80;;;15.80;1.00;;;;;;5049894;28;20184;-58
2021/08/26 04:06:20;;;;;;;6.60;2.97;;;15.80;1.00;;;;;;5050592;28;20543;-57
2021/08/26 04:08:45;;;;;;;6.43;3.30;;;15.80;1.00;;;;;;5050035;28;20646;-57
2021/08/26 04:11:11;;;;;;;8.73;2.83;;;15.70;1.00;;;;;;5048278;28;20189;-57
2021/08/26 04:13:36;;;;;;;6.17;3.00;;;15.80;1.00;;;;;;5049691;28;20600;-57
2021/08/26 04:16:02;;;;;;;4.73;3.30;;;15.70;1.00;;;;;;5050273;28;20239;-57
2021/08/26 04:18:28;;;;;;;3.87;2.90;;;15.80;1.00;;;;;;5049757;28;20194;-57
2021/08/26 04:20:53;;;;;;;4.23;3.83;;;15.80;1.00;;;;;;5047829;28;20181;-59
2021/08/26 04:23:19;;;;;;;6.03;2.83;;;15.80;1.00;;;;;;5050178;28;21181;-66
2021/08/26 04:25:44;;;;;;;5.07;2.93;;;15.90;1.00;;;;;;5049928;28;20194;-58
2021/08/26 04:28:10;;;;;;;6.30;3.37;;;15.80;1.00;;;;;;5049533;28;20185;-59
2021/08/26 04:30:35;;;;;;;4.23;3.43;;;15.80;1.00;;;;;;5048668;28;20549;-58
2021/08/26 04:33:02;;;;;;;4.40;2.80;;;15.70;1.00;;;;;;5050066;28;20538;-60
2021/08/26 04:35:28;;;;;;;3.50;2.53;;;15.80;1.00;;;;;;5049105;28;20229;-59
2021/08/26 04:37:54;;;;;;;4.00;3.13;;;15.80;1.00;;;;;;5050124;28;20777;-58
2021/08/26 04:40:19;;;;;;;6.27;3.50;;;16.00;1.00;;;;;;5049956;28;20258;-59
2021/08/26 04:42:45;;;;;;;7.83;2.80;;;16.00;1.00;;;;;;5055022;28;20177;-58
2021/08/26 04:45:11;;;;;;;5.70;3.50;;;16.10;1.00;;;;;;5059704;28;20555;-58
2021/08/26 04:47:36;;;;;;;5.53;2.80;;;16.20;1.00;;;;;;5069772;28;21003;-59
2021/08/26 04:50:03;;;;;;;4.13;3.30;;;16.10;1.00;;;;;;5055435;28;20183;-59
2021/08/26 04:52:29;;;;;;;3.83;2.90;;;16.30;1.00;;;;;;5056044;28;20193;-57
2021/08/26 04:54:54;;;;;;;5.77;3.07;;;16.30;1.00;;;;;;5056483;28;20504;-58
2021/08/26 04:57:20;;;;;;;4.30;3.90;;;16.20;1.00;;;;;;5056301;28;20189;-59
2021/08/26 04:59:45;;;;;;;4.30;3.30;;;16.30;1.00;;;;;;5056003;28;20725;-58
2021/08/26 05:02:11;;;;;;;5.00;3.90;;;16.30;1.00;;;;;;5055632;28;20221;-58
2021/08/26 05:04:37;;;;;;;4.40;3.67;;;16.30;1.00;;;;;;5056091;28;20200;-57
2021/08/26 05:07:03;;;;;;;3.67;3.37;;;16.20;1.00;;;;;;5056607;28;20189;-56
2021/08/26 05:09:28;;;;;;;7.63;3.13;;;16.20;1.00;;;;;;5055971;28;20187;-56
2021/08/26 05:11:55;;;;;;;5.43;3.80;;;16.20;1.00;;;;;;5056603;28;20445;-57
2021/08/26 05:14:21;;;;;;;5.60;3.47;;;16.20;1.00;;;;;;5055483;28;20191;-58
2021/08/26 05:16:47;;;;;;;6.00;3.30;;;16.20;1.00;;;;;;5058376;28;20443;-56
2021/08/26 05:19:12;;;;;;;4.43;3.77;;;16.20;1.00;;;;;;5056268;28;20453;-56
2021/08/26 05:21:38;;;;;;;6.30;3.30;;;16.40;1.00;;;;;;5056914;28;20207;-57
2021/08/26 05:24:04;;;;;;;5.37;3.37;;;16.40;1.00;;;;;;5061160;28;20642;-57
2021/08/26 05:26:29;;;;;;;4.90;3.30;;;16.40;1.00;;;;;;5056440;28;20183;-57
2021/08/26 05:28:55;;;;;;;9.10;3.80;;;16.40;1.00;;;;;;5056987;28;20275;-56
2021/08/26 05:31:20;;;;;;;5.90;3.70;;;16.40;1.00;;;;;;5056084;28;20186;-56
2021/08/26 05:33:46;;;;;;;5.73;3.77;;;16.20;1.00;;;;;;5056858;28;20222;-57
2021/08/26 05:36:11;;;;;;;5.13;3.57;;;16.30;1.00;;;;;;5055779;28;20192;-56
2021/08/26 05:38:37;;;;;;;3.53;3.10;;;16.40;1.00;;;;;;5056177;28;20181;-56
2021/08/26 05:41:03;;;;;;;6.17;3.60;;;16.40;1.00;;;;;;5056628;28;20544;-58
2021/08/26 05:43:28;;;;;;;4.20;3.40;;;16.30;1.00;;;;;;5056635;28;20423;-58
2021/08/26 05:45:54;;;;;;;8.77;4.40;;;16.30;1.00;;;;;;5057803;28;20270;-59
2021/08/26 05:48:19;;;;;;;7.20;3.80;;;16.30;1.00;;;;;;5068292;28;20219;-56
2021/08/26 05:50:45;;;;;;;3.63;3.27;;;16.30;1.00;;;;;;5056547;28;20180;-57
2021/08/26 05:53:10;;;;;;;4.73;3.60;;;16.40;1.00;;;;;;5053460;28;20810;-55
2021/08/26 05:55:36;;;;;;;4.07;3.67;;;16.40;1.00;;;;;;5052939;28;20181;-56
2021/08/26 05:58:02;;;;;;;5.73;3.93;;;16.40;1.00;;;;;;5053336;28;20182;-57
2021/08/26 06:00:27;;;;;;;6.20;4.47;;;16.50;1.00;;;;;;5052275;28;20226;-58
2021/08/26 06:02:53;;;;;;;7.30;3.97;;;16.40;1.00;;;;;;5053173;28;20180;-57
2021/08/26 06:05:19;;;;;;;5.10;3.90;;;16.40;1.00;;;;;;5053247;28;20190;-57
2021/08/26 06:07:45;;;;;;;7.37;4.33;;;16.30;1.00;;;;;;5057341;28;20205;-58
2021/08/26 06:10:11;;;;;;;6.97;5.00;;;16.40;1.00;;;;;;5068210;28;20418;-57
2021/08/26 06:12:41;;;;;;;6.13;4.10;;;16.70;1.00;;;;;;5052785;28;20540;-56
2021/08/26 06:15:09;;;;;;;6.97;3.70;;;16.70;1.00;;;;;;5052347;28;20236;-57
2021/08/26 06:17:34;;;;;;;6.23;3.90;;;16.70;1.00;;;;;;5052851;28;20496;-56
2021/08/26 06:20:01;;;;;;;10.03;4.40;;;16.80;1.00;;;;;;5051487;28;20465;-57
2021/08/26 06:22:27;;;;;;;7.87;4.23;;;16.70;1.00;;;;;;5052760;28;20649;-57
2021/08/26 06:24:52;;;;;;;4.60;3.73;;;16.70;1.00;;;;;;5052610;28;20443;-57
2021/08/26 06:27:18;;;;;;;6.60;4.10;;;16.70;1.00;;;;;;5052364;28;20267;-59
2021/08/26 06:29:43;;;;;;;7.43;4.40;;;16.70;1.00;;;;;;5052370;28;20233;-56
2021/08/26 06:32:09;;;;;;;6.57;4.47;;;16.80;1.00;;;;;;5052362;28;20658;-57
2021/08/26 06:34:34;;;;;;;11.13;4.77;;;16.90;1.00;;;;;;5056212;28;20232;-57
2021/08/26 06:37:01;;;;;;;11.70;4.83;;;16.80;1.00;;;;;;5061099;28;20192;-58
2021/08/26 06:39:27;;;;;;;9.00;4.80;;;16.80;1.00;;;;;;5063350;28;20609;-57
2021/08/26 06:41:52;;;;;;;11.10;5.40;;;16.70;1.00;;;;;;5052285;28;20432;-60
2021/08/26 06:44:18;;;;;;;7.57;4.73;;;16.70;1.00;;;;;;5052521;28;20796;-57
2021/08/26 06:46:44;;;;;;;9.20;4.50;;;16.70;1.00;;;;;;5072053;28;20178;-59
2021/08/26 06:49:10;;;;;;;10.23;4.70;;;16.90;1.00;;;;;;5052045;28;20689;-58
2021/08/26 06:51:35;;;;;;;10.27;4.17;;;16.90;1.00;;;;;;5051470;28;20447;-57
2021/08/26 06:54:01;;;;;;;12.17;5.00;;;17.00;1.00;;;;;;5052174;28;20225;-57
2021/08/26 06:56:26;;;;;;;9.13;4.00;;;17.10;1.00;;;;;;5051527;28;20176;-59
2021/08/26 06:58:52;;;;;;;9.83;5.40;;;17.20;1.00;;;;;;5050721;28;20662;-58
2021/08/26 07:01:17;;;;;;;9.13;5.93;;;17.20;1.00;;;;;;5052103;28;20177;-59
2021/08/26 07:03:43;;;;;;;12.73;6.20;;;17.20;1.00;;;;;;5064085;28;20194;-59
2021/08/26 07:06:08;;;;;;;9.93;5.23;;;17.10;1.00;;;;;;5059941;28;20182;-58
2021/08/26 07:08:34;;;;;;;13.20;6.20;;;17.00;1.00;;;;;;5069759;28;20179;-57
2021/08/26 07:10:59;;;;;;;10.60;6.17;;;17.00;1.00;;;;;;5051781;28;20266;-59
2021/08/26 07:13:25;;;;;;;9.00;5.50;;;17.00;1.00;;;;;;5052086;28;20183;-57
2021/08/26 07:15:50;;;;;;;13.90;6.00;;;17.00;1.00;;;;;;5051772;28;20190;-57
2021/08/26 07:18:18;;;;;;;11.20;6.13;;;17.10;1.00;;;;;;5050611;28;20183;-58
2021/08/26 07:20:44;;;;;;;14.20;6.13;;;17.10;1.00;;;;;;5051909;28;20202;-57
2021/08/26 07:23:10;;;;;;;11.53;5.60;;;17.20;1.00;;;;;;5050194;28;20474;-58
2021/08/26 07:25:36;;;;;;;13.77;6.07;;;17.30;1.00;;;;;;5052134;28;20428;-58
2021/08/26 07:28:03;;;;;;;20.20;6.17;;;17.30;1.00;;;;;;5050189;28;20191;-58
2021/08/26 07:30:30;;;;;;;14.70;6.10;;;17.30;1.00;;;;;;5058469;28;20757;-59
2021/08/26 07:32:55;;;;;;;10.90;6.03;;;17.50;1.00;;;;;;5053599;28;20489;-57
2021/08/26 07:35:21;;;;;;;10.97;5.80;;;17.40;1.00;;;;;;5071091;28;20464;-58
2021/08/26 07:37:47;;;;;;;9.80;6.67;;;17.30;1.00;;;;;;5061417;28;20309;-58
2021/08/26 07:40:12;;;;;;;11.47;6.50;;;17.30;1.00;;;;;;5058514;28;20658;-59
2021/08/26 07:42:39;;;;;;;13.23;7.43;;;17.20;1.00;;;;;;5051522;28;20235;-59
2021/08/26 07:45:05;;;;;;;12.83;7.60;;;16.90;1.00;;;;;;5051561;28;20283;-58
2021/08/26 07:47:31;;;;;;;14.60;7.37;;;16.80;1.00;;;;;;5050895;28;20416;-57
2021/08/26 07:49:57;;;;;;;10.20;7.10;;;16.40;1.00;;;;;;5051379;28;20417;-57
2021/08/26 07:52:23;;;;;;;10.20;7.23;;;16.40;1.00;;;;;;5051004;28;20448;-59
2021/08/26 07:54:48;;;;;;;13.77;6.57;;;16.30;1.00;;;;;;5053200;28;20435;-58
2021/08/26 07:57:14;;;;;;;11.10;7.10;;;16.20;1.00;;;;;;5055030;28;20191;-59
2021/08/26 07:59:39;;;;;;;10.17;5.87;;;16.20;1.00;;;;;;5051050;28;20528;-58
2021/08/26 08:02:07;;;;;;;9.63;6.47;;;16.20;1.00;;;;;;5061472;28;20265;-59
2021/08/26 08:04:32;;;;;;;10.77;6.50;;;16.30;1.00;;;;;;5061484;28;20270;-58
2021/08/26 08:06:58;;;;;;;11.10;6.83;;;16.50;1.00;;;;;;5057296;28;20513;-59
2021/08/26 08:09:24;;;;;;;14.23;6.97;;;16.70;1.00;;;;;;5049411;28;20196;-57
2021/08/26 08:11:49;;;;;;;8.50;6.13;;;17.20;1.00;;;;;;5050245;28;20472;-58
2021/08/26 08:14:15;;;;;;;14.60;6.70;;;17.70;1.00;;;;;;5050344;28;20690;-58
2021/08/26 08:16:41;;;;;;;11.13;6.83;;;17.80;1.00;;;;;;5050337;28;20276;-57
2021/08/26 08:19:06;;;;;;;11.70;6.73;;;17.90;1.00;;;;;;5050567;28;20468;-57
2021/08/26 08:21:32;;;;;;;11.80;5.40;;;17.80;1.00;;;;;;5050306;28;20193;-59
2021/08/26 08:23:58;;;;;;;8.10;5.67;;;17.70;1.00;;;;;;5047054;28;20192;-59
2021/08/26 08:26:23;;;;;;;11.20;6.33;;;17.70;1.00;;;;;;5050734;28;20192;-59
2021/08/26 08:28:49;;;;;;;9.13;6.03;;;17.60;1.00;;;;;;5050714;28;20214;-57
2021/08/26 08:31:15;;;;;;;8.87;5.30;;;17.60;1.00;;;;;;5055238;28;20178;-57
2021/08/26 08:33:43;;;;;;;6.23;5.63;;;17.70;1.00;;;;;;5067145;28;20229;-57
2021/08/26 08:36:09;;;;;;;10.03;5.43;;;17.60;1.00;;;;;;5053235;28;20191;-58
2021/08/26 08:38:35;;;;;;;12.23;5.50;;;17.70;1.00;;;;;;5048793;28;20434;-58
2021/08/26 08:41:01;;;;;;;8.37;5.40;;;17.90;1.00;;;;;;5050251;28;20203;-58
2021/08/26 08:43:26;;;;;;;12.37;5.30;;;18.20;1.00;;;;;;5050289;28;20322;-59
2021/08/26 08:45:53;;;;;;;12.80;6.07;;;18.50;1.00;;;;;;5050251;28;20537;-59
2021/08/26 08:48:19;;;;;;;16.87;7.37;;;18.50;1.00;;;;;;5050487;28;20626;-59
2021/08/26 08:50:45;;;;;;;13.87;6.90;;;18.10;1.00;;;;;;5049314;28;20457;-58
2021/08/26 08:53:15;;;;;;;14.77;6.33;;;17.40;1.00;;;;;;5050882;28;20190;-58
2021/08/26 08:55:45;;;;;;;9.70;6.17;;;16.90;1.00;;;;;;5050691;28;20464;-59
2021/08/26 08:58:12;;;;;;;12.33;7.57;;;16.60;1.00;;;;;;5050686;28;20456;-58
2021/08/26 09:00:38;;;;;;;16.63;6.80;;;16.50;1.00;;;;;;5050748;28;20471;-57
2021/08/26 09:03:04;;;;;;;9.00;6.57;;;16.60;1.00;;;;;;5050246;28;20420;-60
2021/08/26 09:05:49;;;;;;;8.53;5.90;;;16.90;1.00;;;;;;5050485;28;20976;-58
2021/08/26 09:08:16;;;;;;;7.43;5.93;;;17.00;1.00;;;;;;5050373;28;20407;-58
2021/08/26 09:10:42;;;;;;;7.83;5.50;;;17.10;1.00;;;;;;5050714;28;20426;-58
2021/08/26 09:13:08;;;;;;;12.70;6.23;;;17.10;1.00;;;;;;5049992;28;20437;-58
2021/08/26 09:15:34;;;;;;;9.53;5.40;;;17.40;1.00;;;;;;5050587;28;20179;-58
2021/08/26 09:18:17;;;;;;;10.23;5.40;;;17.40;1.00;;;;;;5050252;28;20446;-60
2021/08/26 09:20:57;;;;;;;9.40;5.63;;;17.50;1.00;;;;;;5050585;28;20228;-57
2021/08/26 09:23:25;;;;;;;12.07;5.80;;;17.60;1.00;;;;;;5050097;28;20456;-58
2021/08/26 09:25:54;;;;;;;12.87;6.30;;;17.70;1.00;;;;;;5050228;28;20443;-60
2021/08/26 09:28:33;;;;;;;11.63;5.57;;;17.70;1.00;;;;;;5051631;28;20766;-59
2021/08/26 09:31:28;;;;;;;12.73;5.40;;;17.60;1.00;;;;;;5062222;28;20449;-58
2021/08/26 09:33:54;;;;;;;10.90;5.50;;;17.60;1.00;;;;;;5069171;28;20991;-58
2021/08/26 09:36:27;;;;;;;11.13;6.37;;;17.50;1.00;;;;;;5071482;28;20419;-57
2021/08/26 09:39:13;;;;;;;6.33;4.90;;;17.30;1.00;;;;;;5054056;28;20186;-59
2021/08/26 09:41:44;;;;;;;5.93;4.47;;;17.10;1.00;;;;;;5053859;28;20530;-59
2021/08/26 09:44:18;;;;;;;7.90;5.40;;;17.20;1.00;;;;;;5053604;28;20433;-58
2021/08/26 09:46:46;;;;;;;8.53;4.50;;;17.50;1.00;;;;;;5067480;28;20791;-57
2021/08/26 09:49:21;;;;;;;6.33;4.10;;;17.80;1.00;;;;;;5073680;28;20437;-58
2021/08/26 09:52:08;;;;;;;10.43;4.80;;;18.10;1.00;;;;;;5072628;28;20926;-57
2021/08/26 09:54:46;;;;;;;8.37;4.20;;;18.60;1.00;;;;;;5052664;28;20423;-57
2021/08/26 09:57:26;;;;;;;6.73;4.73;;;18.80;1.00;;;;;;5053530;28;20441;-57
2021/08/26 09:59:59;;;;;;;4.33;3.83;;;19.10;1.00;;;;;;5053626;28;20472;-58
2021/08/26 10:02:27;;;;;;;6.77;4.30;;;19.30;1.00;;;;;;5056621;28;20887;-58
2021/08/26 10:04:53;;;;;;;6.00;3.57;;;19.40;1.00;;;;;;5073707;28;20437;-58
2021/08/26 10:07:19;;;;;;;8.00;4.43;;;19.20;1.00;;;;;;5073283;28;20461;-57
2021/08/26 10:09:46;;;;;;;9.63;4.80;;;18.80;1.00;;;;;;5073607;28;20446;-58
2021/08/26 10:12:13;;;;;;;8.60;4.20;;;18.90;1.00;;;;;;5064109;28;20445;-58
2021/08/26 10:14:44;;;;;;;10.17;4.43;;;19.00;1.00;;;;;;5052749;28;20440;-58
2021/08/26 10:17:11;;;;;;;7.13;4.80;;;19.20;1.00;;;;;;5053370;28;20407;-56
2021/08/26 10:19:38;;;;;;;9.57;5.70;;;19.40;1.00;;;;;;5052110;28;20455;-57
2021/08/26 10:22:04;;;;;;;6.57;4.23;;;19.50;1.00;;;;;;5052774;28;20450;-57
2021/08/26 10:24:30;;;;;;;6.83;3.90;;;19.80;1.00;;;;;;5054631;28;20552;-57
2021/08/26 10:27:18;;;;;;;10.70;4.27;;;20.40;1.00;;;;;;5061063;28;20541;-58
2021/08/26 10:29:46;;;;;;;6.30;4.27;;;20.70;1.00;;;;;;5052812;28;20982;-57
2021/08/26 10:32:18;;;;;;;7.43;3.97;;;20.90;1.00;;;;;;5052240;28;20749;-58
2021/08/26 10:35:08;;;;;;;6.20;3.93;;;20.70;1.00;;;;;;5070762;28;20444;-58
2021/08/26 10:37:53;;;;;;;9.87;3.40;;;20.60;1.00;;;;;;5059248;28;20416;-58
2021/08/26 10:40:31;;;;;;;8.07;4.17;;;19.80;1.00;;;;;;5052612;28;20813;-58
2021/08/26 10:42:57;;;;;;;6.30;4.30;;;18.90;1.00;;;;;;5052644;28;20401;-58
2021/08/26 10:45:30;;;;;;;7.43;4.27;;;18.60;1.00;;;;;;5068371;28;20433;-57
2021/08/26 10:48:02;;;;;;;10.83;5.90;;;18.10;1.00;;;;;;5072665;28;20773;-58
2021/08/26 10:50:35;;;;;;;6.90;5.73;;;17.70;1.00;;;;;;5072605;28;20466;-58
2021/08/26 10:53:10;;;;;;;7.23;5.27;;;17.20;1.00;;;;;;5072419;28;20440;-57
2021/08/26 10:55:46;;;;;;;7.43;4.80;;;16.70;1.00;;;;;;5072170;28;20409;-58
2021/08/26 10:58:20;;;;;;;8.30;5.07;;;16.50;1.00;;;;;;5072021;28;20438;-57
2021/08/26 11:00:47;;;;;;;9.47;5.30;;;16.50;1.00;;;;;;5071848;28;20461;-58
2021/08/26 11:03:36;;;;;;;8.07;5.07;;;16.70;1.00;;;;;;5072098;28;20939;-59
2021/08/26 11:06:24;;;;;;;5.90;4.10;;;16.90;1.00;;;;;;5058952;28;20899;-58
2021/08/26 11:08:54;;;;;;;7.33;4.77;;;17.00;1.00;;;;;;5071919;28;20414;-59
2021/08/26 11:11:29;;;;;;;6.03;3.63;;;17.30;1.00;;;;;;5065707;28;20506;-57
2021/08/26 11:14:06;;;;;;;4.73;3.70;;;17.60;1.00;;;;;;5055967;28;20449;-58
2021/08/26 11:16:33;;;;;;;7.07;4.17;;;17.70;1.00;;;;;;5049527;28;20441;-57
2021/08/26 11:19:18;;;;;;;4.63;4.13;;;17.80;1.00;;;;;;5056419;28;20530;-58
2021/08/26 11:21:44;;;;;;;7.77;4.80;;;18.00;1.00;;;;;;5072003;28;20885;-58
2021/08/26 11:24:15;;;;;;;7.17;4.40;;;18.00;1.00;;;;;;5071935;28;20452;-58
2021/08/26 11:26:48;;;;;;;7.30;4.80;;;18.20;1.00;;;;;;5066558;28;20404;-58
2021/08/26 11:29:35;;;;;;;8.47;5.00;;;18.60;1.00;;;;;;5051769;28;20452;-57
2021/08/26 11:32:03;;;;;;;7.00;4.90;;;19.20;1.00;;;;;;5051042;28;20932;-57
2021/08/26 11:34:38;;;;;;;9.33;4.93;;;19.70;1.00;;;;;;5051395;28;20449;-58
2021/08/26 11:37:22;;;;;;;9.00;4.63;;;19.60;1.00;;;;;;5051633;28;20496;-58
2021/08/26 11:40:05;;;;;;;8.57;5.07;;;19.70;1.00;;;;;;5050311;28;20439;-58
2021/08/26 11:42:34;;;;;;;7.53;4.20;;;20.30;1.00;;;;;;5051750;28;20412;-58
2021/08/26 11:45:21;;;;;;;8.30;5.00;;;20.70;1.00;;;;;;5050157;28;20409;-58
2021/08/26 11:47:51;;;;;;;7.57;4.57;;;20.40;1.00;;;;;;5051280;28;20437;-57
2021/08/26 11:50:20;;;;;;;6.53;4.13;;;20.20;1.00;;;;;;5050979;28;20901;-58
2021/08/26 11:52:50;;;;;;;5.10;4.00;;;19.80;1.00;;;;;;5051467;28;20488;-58
2021/08/26 11:55:16;;;;;;;6.73;3.70;;;19.40;1.00;;;;;;5051033;28;20449;-57
2021/08/26 11:57:42;;;;;;;8.73;3.60;;;19.30;1.00;;;;;;5049311;28;20632;-58
2021/08/26 12:00:13;;;;;;;11.50;4.87;;;19.00;1.00;;;;;;5049694;28;20565;-59
2021/08/26 12:02:41;;;;;;;7.80;4.10;;;18.90;1.00;;;;;;5049890;28;20174;-58
2021/08/26 12:05:14;;;;;;;9.03;4.50;;;17.90;1.00;;;;;;5050654;28;20749;-58
2021/08/26 12:07:45;;;;;;;7.47;4.93;;;17.50;1.00;;;;;;5060726;28;20409;-58
2021/08/26 12:10:14;;;;;;;7.43;5.63;;;17.20;1.00;;;;;;5051961;28;20941;-57
2021/08/26 12:12:57;;;;;;;4.33;3.93;;;17.20;1.00;;;;;;5051217;28;20505;-58
2021/08/26 12:15:41;;;;;;;4.77;4.00;;;17.50;1.00;;;;;;5051138;28;20930;-57
2021/08/26 12:18:13;;;;;;;5.70;4.00;;;17.60;1.00;;;;;;5059205;28;20439;-58
2021/08/26 12:20:42;;;;;;;10.53;4.03;;;17.90;1.00;;;;;;5071173;28;20445;-57
2021/08/26 12:23:08;;;;;;;4.67;3.20;;;18.20;1.00;;;;;;5054515;28;20437;-57
2021/08/26 12:25:39;;;;;;;9.63;3.97;;;18.20;1.00;;;;;;5051118;28;20438;-57
2021/08/26 12:28:07;;;;;;;5.43;3.30;;;18.50;1.00;;;;;;5046802;28;20432;-57
2021/08/26 12:30:37;;;;;;;6.50;2.67;;;18.70;1.00;;;;;;5051068;28;20408;-57
2021/08/26 12:33:16;;;;;;;4.30;2.53;;;18.60;1.00;;;;;;5066826;28;20430;-57
2021/08/26 12:35:56;;;;;;;3.77;2.57;;;18.50;1.00;;;;;;5070834;28;20447;-58
2021/08/26 12:38:33;;;;;;;2.87;1.83;;;18.20;1.00;;;;;;5070727;28;20447;-57
2021/08/26 12:41:01;;;;;;;3.80;2.87;;;18.10;1.00;;;;;;5070897;28;20972;-58
2021/08/26 12:43:40;;;;;;;4.30;2.50;;;18.10;1.00;;;;;;5070958;28;20408;-57
2021/08/26 12:46:07;;;;;;;1.77;1.53;;;18.10;1.00;;;;;;5062275;28;20409;-58
2021/08/26 12:48:36;;;;;;;3.53;2.13;;;18.20;1.00;;;;;;5050505;28;20767;-58
2021/08/26 12:51:05;;;;;;;1.97;1.70;;;18.50;1.00;;;;;;5057314;28;20944;-57
2021/08/26 12:53:31;;;;;;;4.80;1.70;;;19.00;1.00;;;;;;5070643;28;20479;-58
2021/08/26 12:56:06;;;;;;;3.40;1.57;;;19.20;1.00;;;;;;5071022;28;20438;-58
2021/08/26 12:58:31;;;;;;;1.93;1.43;;;19.40;1.00;;;;;;5070668;28;20240;-58
2021/08/26 13:00:57;;;;;;;2.50;1.60;;;19.70;1.00;;;;;;5070825;28;20836;-57